Leyburn, United Kingdom
Current Conditions -  °F | °C
As of 7:50 AM on Friday 31 Oct 2014 (Local Time) from EGXE Reporting Station
Haze Haze  
Wind Chill: 57°   Ceiling: 20000
Heat Index: 57°   Visibility: 3mi
Dew Point: 55°   Wind: 7mph
Humidity: 94%   Direction: 150°SSE
Pressure: 29.91"   Gusts: NA
Location:  54.31°N, 1.83°W
Report Text: EGXE 310750Z 15006KT 5000 HZ SCT020 BKN200 14/13 Q1013 WHT BECMG FEW020 WHT
Loading
Personal Weather Stations






























Interactive Weather Map
Tropical Storm Tracking
New forecast layout! Learn more

10-Day Weather Forecast

Advertisements
Track Severe Weather on mobile